Time;durP1;ratioP1;P1;durP2;ratioP2;P2;SDS_P1;SDS_P2;PMS_P1;PMS_P2;Temp;Humidity;BMP_temperature;BMP_pressure;BME280_temperature;BME280_humidity;BME280_pressure;Samples;Min_cycle;Max_cycle;Signal;HPM_P1;HPM_P2
2021/03/01 00:02:14;;;;;;;;;;;;;;;2.15;84.40;99524.93;1667002;86;20120;-72
2021/03/01 00:04:41;;;;;;;;;;;;;;;2.16;84.39;99527.12;1666915;86;20137;-71
2021/03/01 00:07:08;;;;;;;;;;;;;;;2.15;84.43;99525.39;1667049;86;20156;-71
2021/03/01 00:09:36;;;;;;;;;;;;;;;2.16;84.30;99529.77;1666988;84;22132;-72
2021/03/01 00:12:04;;;;;;;;;;;;;;;2.15;84.25;99526.25;1667083;86;21082;-71
2021/03/01 00:14:32;;;;;;;;;;;;;;;2.15;84.29;99530.23;1667147;86;20120;-71
2021/03/01 00:17:03;;;;;;;;;;;;;;;2.14;84.26;99528.50;1667146;86;20462;-71
2021/03/01 00:19:31;;;;;;;;;;;;;;;2.10;84.42;99529.44;1667088;86;20165;-71
2021/03/01 00:21:58;;;;;;;;;;;;;;;2.10;84.41;99530.77;1667163;86;21272;-71
2021/03/01 00:24:26;;;;;;;;;;;;;;;2.08;84.27;99539.20;1667080;86;20208;-71
2021/03/01 00:26:53;;;;;;;;;;;;;;;2.06;84.30;99542.30;1667102;86;20145;-71
2021/03/01 00:29:20;;;;;;;;;;;;;;;2.05;84.46;99539.68;1667061;86;20116;-71
2021/03/01 00:31:49;;;;;;;;;;;;;;;2.02;84.44;99545.92;1667310;86;20398;-71
2021/03/01 00:34:17;;;;;;;;;;;;;;;1.97;84.56;99534.50;1669310;86;21835;-71
2021/03/01 00:36:44;;;;;;;;;;;;;;;1.97;84.44;99540.70;1671947;86;20137;-71
2021/03/01 00:39:12;;;;;;;;;;;;;;;1.94;84.50;99541.17;1671952;86;20144;-72
2021/03/01 00:41:39;;;;;;;;;;;;;;;1.93;84.28;99547.39;1671862;86;20148;-71
2021/03/01 00:44:06;;;;;;;;;;;;;;;1.90;84.20;99546.12;1671977;86;20192;-71
2021/03/01 00:46:37;;;;;;;;;;;;;;;1.86;84.16;99543.97;1671954;86;21164;-71
2021/03/01 00:49:05;;;;;;;;;;;;;;;1.83;84.22;99551.97;1671886;86;20136;-71
2021/03/01 00:51:33;;;;;;;;;;;;;;;1.75;84.39;99554.73;1671963;86;20120;-71
2021/03/01 00:54:03;;;;;;;;;;;;;;;1.73;84.51;99564.45;1671913;86;20175;-71
2021/03/01 00:56:32;;;;;;;;;;;;;;;1.74;84.55;99566.22;1672031;86;20153;-70
2021/03/01 00:58:59;;;;;;;;;;;;;;;1.72;84.65;99569.34;1671909;86;23616;-70
2021/03/01 01:01:32;;;;;;;;;;;;;;;1.69;84.79;99573.36;1671956;86;20121;-70
2021/03/01 01:04:00;;;;;;;;;;;;;;;1.69;84.79;99569.39;1671960;86;20165;-70
2021/03/01 01:06:29;;;;;;;;;;;;;;;1.66;84.87;99564.14;1671849;86;20156;-70
2021/03/01 01:08:58;;;;;;;;;;;;;;;1.64;84.82;99572.56;1671974;86;20121;-70
2021/03/01 01:11:25;;;;;;;;;;;;;;;1.65;84.74;99581.37;1671919;86;21395;-70
2021/03/01 01:13:52;;;;;;;;;;;;;;;1.66;84.86;99580.02;1671896;86;20622;-70
2021/03/01 01:16:21;;;;;;;;;;;;;;;1.66;84.83;99580.02;1671955;86;20157;-70
2021/03/01 01:18:50;;;;;;;;;;;;;;;1.65;84.71;99578.27;1671928;86;20136;-70
2021/03/01 01:21:19;;;;;;;;;;;;;;;1.64;84.56;99577.86;1671879;86;20140;-71
2021/03/01 01:23:48;;;;;;;;;;;;;;;1.62;84.52;99583.17;1671887;86;21457;-71
2021/03/01 01:26:15;;;;;;;;;;;;;;;1.59;84.57;99585.86;1671895;86;20136;-71
2021/03/01 01:28:42;;;;;;;;;;;;;;;1.57;84.65;99581.02;1671887;86;20160;-71
2021/03/01 01:31:10;;;;;;;;;;;;;;;1.57;84.69;99597.36;1671840;86;20120;-71
2021/03/01 01:33:37;;;;;;;;;;;;;;;1.53;84.75;99589.02;1671591;86;20160;-71
2021/03/01 01:36:04;;;;;;;;;;;;;;;1.50;84.90;99587.31;1669806;85;21399;-71
2021/03/01 01:38:35;;;;;;;;;;;;;;;1.51;85.12;99592.14;1670895;86;20128;-70
2021/03/01 01:41:02;;;;;;;;;;;;;;;1.51;85.25;99600.09;1671886;86;20148;-70
2021/03/01 01:43:29;;;;;;;;;;;;;;;1.51;85.41;99601.41;1671951;86;20168;-70
2021/03/01 01:45:57;;;;;;;;;;;;;;;1.52;85.45;99604.50;1671936;86;20173;-71
2021/03/01 01:48:24;;;;;;;;;;;;;;;1.52;85.34;99603.17;1671925;86;21355;-71
2021/03/01 01:50:52;;;;;;;;;;;;;;;1.53;85.42;99604.91;1671805;86;20136;-70
2021/03/01 01:53:23;;;;;;;;;;;;;;;1.53;85.57;99607.55;1671900;86;20161;-71
2021/03/01 01:55:50;;;;;;;;;;;;;;;1.54;85.63;99614.61;1671910;86;20161;-71
2021/03/01 01:58:18;;;;;;;;;;;;;;;1.54;85.62;99615.48;1671957;86;20168;-71
2021/03/01 02:00:46;;;;;;;;;;;;;;;1.55;85.66;99617.24;1671802;86;21366;-71
2021/03/01 02:03:34;;;;;;;;;;;;;;;1.57;85.67;99608.82;1671899;86;20140;-71
2021/03/01 02:06:06;;;;;;;;;;;;;;;1.57;85.78;99609.28;1671944;86;20137;-70
2021/03/01 02:08:43;;;;;;;;;;;;;;;1.58;85.67;99610.58;1671877;86;20181;-70
2021/03/01 02:11:42;;;;;;;;;;;;;;;1.60;85.59;99607.45;1625628;86;20137;-70
2021/03/01 02:14:19;;;;;;;;;;;;;;;1.61;85.67;99605.70;1607753;89;21419;-71
2021/03/01 02:16:47;;;;;;;;;;;;;;;1.63;85.58;99609.20;1607603;89;20182;-72
2021/03/01 02:19:15;;;;;;;;;;;;;;;1.66;85.56;99609.63;1635723;86;20164;-70
2021/03/01 02:21:44;;;;;;;;;;;;;;;1.66;85.61;99617.11;1671880;86;20141;-70
2021/03/01 02:24:15;;;;;;;;;;;;;;;1.65;85.59;99621.96;1671904;86;20160;-70
2021/03/01 02:26:44;;;;;;;;;;;;;;;1.66;85.58;99626.38;1671884;86;21483;-70
2021/03/01 02:29:14;;;;;;;;;;;;;;;1.66;85.59;99629.48;1671794;86;20140;-70
2021/03/01 02:31:44;;;;;;;;;;;;;;;1.65;85.63;99633.88;1671879;86;20168;-70
2021/03/01 02:34:14;;;;;;;;;;;;;;;1.65;85.77;99639.18;1671874;86;20121;-70
2021/03/01 02:36:55;;;;;;;;;;;;;;;1.66;85.69;99642.27;1671752;86;20136;-70
2021/03/01 02:39:23;;;;;;;;;;;;;;;1.66;85.81;99643.59;1642277;87;21849;-71
2021/03/01 02:41:51;;;;;;;;;;;;;;;1.69;85.75;99643.55;1642974;87;20304;-71
2021/03/01 02:44:18;;;;;;;;;;;;;;;1.70;85.88;99639.98;1642992;87;20175;-71
2021/03/01 02:46:46;;;;;;;;;;;;;;;1.73;85.90;99642.59;1642947;87;20211;-71
2021/03/01 02:49:15;;;;;;;;;;;;;;;1.74;85.98;99653.62;1642941;87;20146;-71
2021/03/01 02:51:45;;;;;;;;;;;;;;;1.76;86.03;99656.26;1634938;87;21265;-71
2021/03/01 02:54:16;;;;;;;;;;;;;;;1.76;86.03;99654.47;1643046;87;20744;-71
2021/03/01 02:56:42;;;;;;;;;;;;;;;1.81;86.04;99659.71;1642940;87;20441;-71
2021/03/01 02:59:10;;;;;;;;;;;;;;;1.85;85.98;99664.55;1634847;87;20265;-72
2021/03/01 03:01:38;;;;;;;;;;;;;;;1.85;85.97;99663.22;1643100;87;20484;-71
2021/03/01 03:04:06;;;;;;;;;;;;;;;1.87;85.96;99664.06;1642954;87;21685;-71
2021/03/01 03:06:35;;;;;;;;;;;;;;;1.87;86.01;99665.39;1642907;87;20300;-71
2021/03/01 03:09:03;;;;;;;;;;;;;;;1.89;86.04;99661.83;1643055;87;20397;-72
2021/03/01 03:11:30;;;;;;;;;;;;;;;1.92;86.06;99663.55;1634843;87;20167;-71
2021/03/01 03:13:57;;;;;;;;;;;;;;;1.93;86.12;99660.00;1591612;87;20123;-71
2021/03/01 03:16:26;;;;;;;;;;;;;;;1.94;86.26;99664.39;1643011;87;21021;-70
2021/03/01 03:18:54;;;;;;;;;;;;;;;1.94;86.34;99665.71;1642915;87;20160;-70
2021/03/01 03:21:22;;;;;;;;;;;;;;;1.94;86.31;99673.23;1642865;87;20122;-71
2021/03/01 03:23:49;;;;;;;;;;;;;;;1.94;86.57;99674.98;1642981;87;20122;-71
2021/03/01 03:26:16;;;;;;;;;;;;;;;1.96;86.75;99678.52;1642969;87;20162;-70
2021/03/01 03:28:44;;;;;;;;;;;;;;;1.98;86.87;99684.66;1642968;87;21409;-70
2021/03/01 03:31:12;;;;;;;;;;;;;;;1.98;86.93;99687.31;1642870;87;20154;-70
2021/03/01 03:33:40;;;;;;;;;;;;;;;1.99;86.92;99685.09;1642996;87;20179;-70
2021/03/01 03:36:08;;;;;;;;;;;;;;;1.99;86.98;99680.66;1644639;85;20188;-71
2021/03/01 03:38:43;;;;;;;;;;;;;;;2.01;87.07;99688.59;1686833;85;20162;-71
2021/03/01 03:41:11;;;;;;;;;;;;;;;1.99;87.19;99689.94;1686677;85;21321;-71
2021/03/01 03:43:41;;;;;;;;;;;;;;;1.99;87.38;99694.38;1686761;85;20119;-71
2021/03/01 03:46:08;;;;;;;;;;;;;;;2.00;87.38;99693.45;1686769;85;20151;-71
2021/03/01 03:48:36;;;;;;;;;;;;;;;2.02;87.41;99695.66;1686823;85;20718;-71
2021/03/01 03:51:07;;;;;;;;;;;;;;;2.03;87.64;99693.41;1686742;84;20158;-71
2021/03/01 03:53:41;;;;;;;;;;;;;;;2.02;87.70;99694.33;1686922;85;22299;-71
2021/03/01 03:56:10;;;;;;;;;;;;;;;2.04;87.60;99699.16;1686732;85;20415;-72
2021/03/01 03:58:44;;;;;;;;;;;;;;;2.05;87.50;99696.04;1686511;85;33869;-72
2021/03/01 04:01:13;;;;;;;;;;;;;;;2.07;87.44;99695.13;1686758;85;20938;-72
2021/03/01 04:03:42;;;;;;;;;;;;;;;2.08;87.45;99700.88;1686907;85;20135;-72
2021/03/01 04:06:11;;;;;;;;;;;;;;;2.09;87.47;99698.63;1686793;85;21103;-72
2021/03/01 04:08:41;;;;;;;;;;;;;;;2.10;87.63;99699.53;1686779;85;21085;-72
2021/03/01 04:11:09;;;;;;;;;;;;;;;2.10;87.56;99705.70;1686716;85;20154;-72
2021/03/01 04:13:36;;;;;;;;;;;;;;;2.13;87.52;99706.98;1686780;85;20159;-72
2021/03/01 04:16:04;;;;;;;;;;;;;;;2.15;87.47;99703.84;1686829;85;20424;-72
2021/03/01 04:18:34;;;;;;;;;;;;;;;2.17;87.36;99702.04;1682103;85;21394;-72
2021/03/01 04:21:03;;;;;;;;;;;;;;;2.19;87.42;99697.17;1686634;85;20159;-72
2021/03/01 04:23:34;;;;;;;;;;;;;;;2.21;87.36;99704.65;1686770;85;20135;-72
2021/03/01 04:26:02;;;;;;;;;;;;;;;2.21;87.33;99704.65;1686667;85;20143;-72
2021/03/01 04:28:30;;;;;;;;;;;;;;;2.22;87.28;99707.28;1686774;85;20140;-72
2021/03/01 04:31:05;;;;;;;;;;;;;;;2.23;87.14;99710.83;1686700;85;21458;-72
2021/03/01 04:33:34;;;;;;;;;;;;;;;2.25;87.04;99714.33;1686783;85;20142;-71
2021/03/01 04:36:04;;;;;;;;;;;;;;;2.26;87.01;99721.39;1686789;85;20151;-71
2021/03/01 04:38:32;;;;;;;;;;;;;;;2.25;86.95;99725.80;1683640;84;20166;-71
2021/03/01 04:41:00;;;;;;;;;;;;;;;2.26;86.94;99726.69;1683529;85;20130;-72
2021/03/01 04:43:33;;;;;;;;;;;;;;;2.27;86.91;99727.09;1683664;85;22782;-72
2021/03/01 04:46:00;;;;;;;;;;;;;;;2.26;86.83;99728.02;1683515;85;20139;-72
2021/03/01 04:48:27;;;;;;;;;;;;;;;2.27;86.81;99726.67;1683536;85;20194;-72
2021/03/01 04:50:54;;;;;;;;;;;;;;;2.29;86.80;99735.47;1683468;85;20304;-71
2021/03/01 04:53:21;;;;;;;;;;;;;;;2.30;86.83;99738.98;1683579;85;20163;-71
2021/03/01 04:55:48;;;;;;;;;;;;;;;2.29;86.80;99740.77;1683504;85;21823;-71
2021/03/01 04:58:16;;;;;;;;;;;;;;;2.30;86.75;99745.61;1683503;85;20463;-71
2021/03/01 05:00:44;;;;;;;;;;;;;;;2.30;86.71;99750.48;1683624;85;20119;-71
2021/03/01 05:03:12;;;;;;;;;;;;;;;2.32;86.66;99738.53;1683648;85;20174;-71
2021/03/01 05:05:41;;;;;;;;;;;;;;;2.32;86.59;99746.03;1683722;85;20137;-71
2021/03/01 05:08:12;;;;;;;;;;;;;;;2.31;86.59;99749.56;1683649;85;21216;-71
2021/03/01 05:10:39;;;;;;;;;;;;;;;2.31;86.49;99748.70;1683528;85;20119;-71
2021/03/01 05:13:08;;;;;;;;;;;;;;;2.31;86.40;99751.35;1683704;85;20135;-73
2021/03/01 05:15:36;;;;;;;;;;;;;;;2.32;86.41;99758.42;1683654;85;20115;-72
2021/03/01 05:18:04;;;;;;;;;;;;;;;2.31;86.34;99748.25;1683676;85;20135;-72
2021/03/01 05:20:34;;;;;;;;;;;;;;;2.32;86.31;99758.42;1683610;85;21812;-73
2021/03/01 05:23:01;;;;;;;;;;;;;;;2.30;86.29;99756.22;1683511;85;20143;-72
2021/03/01 05:25:29;;;;;;;;;;;;;;;2.30;86.35;99764.17;1683543;85;20139;-72
2021/03/01 05:27:59;;;;;;;;;;;;;;;2.30;86.32;99764.17;1683640;85;20162;-72
2021/03/01 05:30:27;;;;;;;;;;;;;;;2.29;86.22;99766.42;1683640;84;20185;-73
2021/03/01 05:32:55;;;;;;;;;;;;;;;2.29;86.13;99775.23;1683735;85;21896;-72
2021/03/01 05:35:25;;;;;;;;;;;;;;;2.29;86.19;99777.02;1683590;85;20160;-72
2021/03/01 05:37:53;;;;;;;;;;;;;;;2.31;86.32;99781.84;1678799;84;20156;-73
2021/03/01 05:40:21;;;;;;;;;;;;;;;2.30;86.35;99782.30;1673867;85;20485;-72
2021/03/01 05:42:50;;;;;;;;;;;;;;;2.31;86.27;99783.17;1673880;85;20120;-73
2021/03/01 05:45:17;;;;;;;;;;;;;;;2.32;86.23;99778.31;1673830;85;21274;-72
2021/03/01 05:47:44;;;;;;;;;;;;;;;2.34;86.17;99785.78;1673815;85;20159;-72
2021/03/01 05:50:15;;;;;;;;;;;;;;;2.36;86.05;99790.61;1673859;85;20139;-73
2021/03/01 05:52:45;;;;;;;;;;;;;;;2.36;85.99;99793.26;1673811;85;20160;-73
2021/03/01 05:55:13;;;;;;;;;;;;;;;2.37;86.00;99795.48;1673963;85;20139;-72
2021/03/01 05:57:40;;;;;;;;;;;;;;;2.38;85.96;99799.86;1673856;85;21271;-73
2021/03/01 06:00:09;;;;;;;;;;;;;;;2.38;85.88;99795.89;1673747;85;20167;-73
2021/03/01 06:02:37;;;;;;;;;;;;;;;2.39;85.86;99802.95;1675204;85;20190;-73
2021/03/01 06:05:06;;;;;;;;;;;;;;;2.39;85.82;99805.15;1673765;85;20119;-73
2021/03/01 06:07:34;;;;;;;;;;;;;;;2.40;85.73;99812.22;1673855;85;20169;-73
2021/03/01 06:10:01;;;;;;;;;;;;;;;2.38;85.75;99811.37;1673849;85;20999;-73
2021/03/01 06:12:28;;;;;;;;;;;;;;;2.39;85.79;99818.87;1673781;85;20168;-73
2021/03/01 06:14:55;;;;;;;;;;;;;;;2.39;85.79;99818.87;1673818;85;20136;-72
2021/03/01 06:17:23;;;;;;;;;;;;;;;2.40;85.77;99831.20;1673772;85;20278;-71
2021/03/01 06:19:56;;;;;;;;;;;;;;;2.41;85.80;99829.86;1673811;85;20160;-72
2021/03/01 06:22:33;;;;;;;;;;;;;;;2.41;85.80;99836.49;1673955;85;22844;-73
2021/03/01 06:25:08;;;;;;;;;;;;;;;2.41;85.86;99845.77;1673820;85;20167;-73
2021/03/01 06:27:57;;;;;;;;;;;;;;;2.43;85.86;99849.30;1673865;85;20164;-73
2021/03/01 06:30:28;;;;;;;;;;;;;;;2.43;85.74;99855.94;1650242;87;20523;-72
2021/03/01 06:33:12;;;;;;;;;;;;;;;2.44;85.73;99856.34;1667132;86;20500;-73
2021/03/01 06:35:48;;;;;;;;;;;;;;;2.45;85.71;99859.44;1667012;86;21062;-72
2021/03/01 06:38:31;;;;;;;;;;;;;;;2.46;85.76;99862.53;1669321;86;20132;-72
2021/03/01 06:41:14;;;;;;;;;;;;;;;2.48;85.79;99859.86;1671832;86;20140;-74
2021/03/01 06:43:53;;;;;;;;;;;;;;;2.50;85.73;99860.70;1671842;86;20161;-74
2021/03/01 06:46:23;;;;;;;;;;;;;;;2.49;85.65;99869.12;1668973;86;20140;-73
2021/03/01 06:48:51;;;;;;;;;;;;;;;2.52;85.55;99881.02;1671935;86;22144;-73
2021/03/01 06:51:18;;;;;;;;;;;;;;;2.53;85.41;99880.09;1671819;86;20148;-73
2021/03/01 06:53:45;;;;;;;;;;;;;;;2.53;85.33;99888.05;1671926;86;20135;-74
2021/03/01 06:56:14;;;;;;;;;;;;;;;2.53;85.26;99892.03;1671852;86;20131;-73
2021/03/01 06:58:43;;;;;;;;;;;;;;;2.52;85.32;99891.63;1671629;86;20160;-73
2021/03/01 07:01:17;;;;;;;;;;;;;;;2.53;85.32;99896.02;1671353;86;21732;-81
2021/03/01 07:03:48;;;;;;;;;;;;;;;2.56;85.35;99896.89;1671828;86;20169;-81
2021/03/01 07:06:18;;;;;;;;;;;;;;;2.60;85.35;99907.88;1667282;86;20265;-79
2021/03/01 07:08:49;;;;;;;;;;;;;;;2.61;85.24;99908.31;1671819;86;20144;-77
2021/03/01 07:11:33;;;;;;;;;;;;;;;2.62;84.99;99906.10;1671805;86;20211;-79
2021/03/01 07:14:12;;;;;;;;;;;;;;;2.62;84.85;99904.78;1672121;86;21213;-75
2021/03/01 07:16:41;;;;;;;;;;;;;;;2.63;84.69;99903.86;1672234;86;20160;-78
2021/03/01 07:19:20;;;;;;;;;;;;;;;2.65;84.57;99908.69;1667418;86;20128;-78
2021/03/01 07:21:52;;;;;;;;;;;;;;;2.67;84.49;99909.56;1670589;86;20144;-77
2021/03/01 07:24:25;;;;;;;;;;;;;;;2.68;84.49;99913.53;1672236;86;20137;-80
2021/03/01 07:27:00;;;;;;;;;;;;;;;2.68;84.47;99912.63;1672377;86;21390;-79
2021/03/01 07:29:31;;;;;;;;;;;;;;;2.69;84.38;99910.41;1672209;86;20124;-78
2021/03/01 07:32:05;;;;;;;;;;;;;;;2.71;84.21;99913.91;1672413;86;20137;-69
2021/03/01 07:34:36;;;;;;;;;;;;;;;2.72;84.11;99917.00;1671881;86;20482;-77
2021/03/01 07:37:05;;;;;;;;;;;;;;;2.71;84.17;99916.14;1671920;86;20173;-77
2021/03/01 07:39:35;;;;;;;;;;;;;;;2.73;84.13;99918.77;1667588;86;20678;-77
2021/03/01 07:42:07;;;;;;;;;;;;;;;2.73;84.04;99916.12;1666919;86;20156;-74
2021/03/01 07:44:37;;;;;;;;;;;;;;;2.74;83.97;99920.51;1646368;86;20224;-80
2021/03/01 07:47:08;;;;;;;;;;;;;;;2.76;83.94;99925.37;1668439;86;20228;-79
2021/03/01 07:49:49;;;;;;;;;;;;;;;2.78;84.02;99924.89;1667240;86;20412;-78
2021/03/01 07:52:42;;;;;;;;;;;;;;;2.80;84.00;99931.05;1666716;86;21755;-81
2021/03/01 07:55:16;;;;;;;;;;;;;;;2.82;83.94;99931.02;1667448;86;20120;-79
2021/03/01 07:57:48;;;;;;;;;;;;;;;2.84;83.89;99935.42;1646541;86;20156;-79
2021/03/01 08:00:29;;;;;;;;;;;;;;;2.87;83.86;99932.73;1646855;86;20173;-76
2021/03/01 08:03:22;;;;;;;;;;;;;;;2.91;83.73;99935.34;1671482;85;20171;-78
2021/03/01 08:05:54;;;;;;;;;;;;;;;2.96;83.56;99929.52;1673682;85;21230;-75
2021/03/01 08:08:44;;;;;;;;;;;;;;;2.99;83.45;99934.78;1674328;85;20119;-80
2021/03/01 08:11:42;;;;;;;;;;;;;;;3.03;83.39;99937.84;1673883;85;20151;-77
2021/03/01 08:14:13;;;;;;;;;;;;;;;3.06;83.28;99943.11;1655772;85;20167;-76
2021/03/01 08:16:45;;;;;;;;;;;;;;;3.10;82.99;99941.28;1674051;85;20159;-77
2021/03/01 08:19:21;;;;;;;;;;;;;;;3.13;82.79;99934.14;1674022;85;21212;-73
2021/03/01 08:22:03;;;;;;;;;;;;;;;3.15;82.70;99942.95;1669849;85;20420;-79
2021/03/01 08:24:50;;;;;;;;;;;;;;;3.18;82.72;99941.58;1671714;85;20163;-77
2021/03/01 08:27:30;;;;;;;;;;;;;;;3.22;82.77;99943.30;1673882;85;20590;-73
2021/03/01 08:30:37;;;;;;;;;;;;;;;3.24;82.66;99947.26;1673957;85;20428;-76
2021/03/01 08:33:14;;;;;;;;;;;;;;;3.28;82.49;99953.39;1658038;85;21404;-73
2021/03/01 08:35:54;;;;;;;;;;;;;;;3.31;82.58;99950.69;1673881;85;20155;-76
2021/03/01 08:38:46;;;;;;;;;;;;;;;3.35;82.51;99951.09;1673913;85;20484;-75
2021/03/01 08:41:17;;;;;;;;;;;;;;;3.37;82.44;99960.77;1673872;85;20163;-72
2021/03/01 08:43:54;;;;;;;;;;;;;;;3.39;82.18;99960.31;1674042;85;20156;-73
2021/03/01 08:46:22;;;;;;;;;;;;;;;3.40;82.22;99961.19;1673876;85;22177;-74
2021/03/01 08:48:52;;;;;;;;;;;;;;;3.40;82.05;99959.39;1674017;85;20215;-73
2021/03/01 08:51:22;;;;;;;;;;;;;;;3.42;81.81;99962.03;1674012;85;20119;-81
2021/03/01 08:53:53;;;;;;;;;;;;;;;3.43;81.89;99967.31;1673981;85;20115;-79
2021/03/01 08:56:25;;;;;;;;;;;;;;;3.43;81.94;99963.80;1674032;85;20124;-70
2021/03/01 08:58:57;;;;;;;;;;;;;;;3.44;82.08;99973.53;1675507;85;22332;-76
2021/03/01 09:01:25;;;;;;;;;;;;;;;3.46;81.99;99977.03;1673948;85;20609;-77
2021/03/01 09:03:55;;;;;;;;;;;;;;;3.50;81.95;99980.52;1674093;85;20163;-77
2021/03/01 09:06:26;;;;;;;;;;;;;;;3.52;81.94;99975.61;1672247;85;20139;-78
2021/03/01 09:08:56;;;;;;;;;;;;;;;3.57;82.03;99985.70;1674143;85;20139;-77
2021/03/01 09:11:25;;;;;;;;;;;;;;;3.59;82.00;99985.22;1660090;85;21193;-78
2021/03/01 09:13:59;;;;;;;;;;;;;;;3.59;81.84;99991.87;1673991;85;20140;-78
2021/03/01 09:16:29;;;;;;;;;;;;;;;3.59;81.65;99991.87;1674127;85;20120;-78
2021/03/01 09:19:06;;;;;;;;;;;;;;;3.62;81.48;100000.25;1660601;85;20155;-77
2021/03/01 09:21:40;;;;;;;;;;;;;;;3.64;81.60;100001.56;1674155;85;20452;-80
2021/03/01 09:24:13;;;;;;;;;;;;;;;3.66;81.74;100001.97;1660213;85;22141;-78
2021/03/01 09:26:45;;;;;;;;;;;;;;;3.68;81.21;100005.48;1673916;85;20155;-77
2021/03/01 09:29:31;;;;;;;;;;;;;;;3.68;80.52;100005.48;1673938;85;20139;-78
2021/03/01 09:32:01;;;;;;;;;;;;;;;3.70;80.51;100017.41;1673960;85;20155;-79
2021/03/01 09:34:29;;;;;;;;;;;;;;;3.69;80.42;100017.88;1674016;85;20140;-79
2021/03/01 09:36:58;;;;;;;;;;;;;;;3.71;80.47;100021.84;1672168;85;22526;-79
2021/03/01 09:39:29;;;;;;;;;;;;;;;3.71;80.29;100022.70;1673784;85;20159;-79
2021/03/01 09:42:00;;;;;;;;;;;;;;;3.69;80.28;100023.19;1673909;85;20159;-79
2021/03/01 09:44:30;;;;;;;;;;;;;;;3.67;80.10;100028.09;1673989;85;20451;-78
2021/03/01 09:46:59;;;;;;;;;;;;;;;3.66;80.08;100028.98;1673959;85;20128;-79
2021/03/01 09:49:30;;;;;;;;;;;;;;;3.65;80.27;100032.55;1674096;85;21156;-78
2021/03/01 09:51:58;;;;;;;;;;;;;;;3.61;80.24;100036.59;1673994;85;20393;-79
2021/03/01 09:54:27;;;;;;;;;;;;;;;3.59;80.37;100031.72;1675254;85;20156;-79
2021/03/01 09:57:06;;;;;;;;;;;;;;;3.58;80.61;100031.31;1650554;87;20212;-78
2021/03/01 09:59:42;;;;;;;;;;;;;;;3.59;80.57;100037.03;1667206;86;20161;-79
2021/03/01 10:02:17;;;;;;;;;;;;;;;3.60;80.60;100038.80;1667150;86;21274;-78
2021/03/01 10:04:47;;;;;;;;;;;;;;;3.61;80.66;100048.55;1667154;86;20244;-80
2021/03/01 10:07:19;;;;;;;;;;;;;;;3.61;80.57;100045.89;1667543;86;20141;-80
2021/03/01 10:09:47;;;;;;;;;;;;;;;3.62;80.63;100042.30;1667234;86;20615;-79
2021/03/01 10:12:17;;;;;;;;;;;;;;;3.65;80.62;100049.83;1667262;86;20414;-80
2021/03/01 10:14:45;;;;;;;;;;;;;;;3.66;80.63;100045.82;1667202;86;22248;-78
2021/03/01 10:17:20;;;;;;;;;;;;;;;3.67;80.64;100040.05;1667090;86;20190;-78
2021/03/01 10:19:51;;;;;;;;;;;;;;;3.69;80.74;100044.45;1667092;86;20148;-79
2021/03/01 10:22:23;;;;;;;;;;;;;;;3.72;80.84;100044.83;1647408;86;21024;-79
2021/03/01 10:24:53;;;;;;;;;;;;;;;3.76;81.00;100045.23;1667102;86;20144;-78
2021/03/01 10:27:37;;;;;;;;;;;;;;;3.79;80.64;100033.22;1667159;86;21667;-78
2021/03/01 10:30:07;;;;;;;;;;;;;;;3.84;80.49;100038.47;1667092;86;20160;-78
2021/03/01 10:32:35;;;;;;;;;;;;;;;3.89;80.41;100041.46;1667121;86;20161;-79
2021/03/01 10:35:09;;;;;;;;;;;;;;;3.95;80.06;100038.70;1667083;86;20160;-80
2021/03/01 10:37:39;;;;;;;;;;;;;;;4.00;79.99;100038.63;1666900;86;20227;-80
2021/03/01 10:40:08;;;;;;;;;;;;;;;4.06;79.80;100035.01;1670460;86;21144;-79
2021/03/01 10:42:38;;;;;;;;;;;;;;;4.10;79.75;100029.61;1671919;86;20153;-77
2021/03/01 10:45:07;;;;;;;;;;;;;;;4.16;79.59;100026.86;1671970;86;20426;-78
2021/03/01 10:47:39;;;;;;;;;;;;;;;4.21;79.26;100035.19;1671913;86;20160;-80
2021/03/01 10:50:19;;;;;;;;;;;;;;;4.22;78.77;100032.50;1671923;86;20169;-80
2021/03/01 10:52:48;;;;;;;;;;;;;;;4.27;78.75;100022.69;1672031;86;22749;-80
2021/03/01 10:55:16;;;;;;;;;;;;;;;4.30;78.93;100030.61;1671962;86;20121;-79
2021/03/01 10:57:46;;;;;;;;;;;;;;;4.34;78.60;100034.95;1671943;86;20409;-80
2021/03/01 11:00:17;;;;;;;;;;;;;;;4.38;78.55;100037.56;1671926;86;20140;-78
2021/03/01 11:02:45;;;;;;;;;;;;;;;4.40;78.10;100033.08;1671932;86;20144;-78
2021/03/01 11:05:12;;;;;;;;;;;;;;;4.40;77.70;100029.98;1671979;86;21267;-79
2021/03/01 11:07:39;;;;;;;;;;;;;;;4.42;78.09;100030.83;1671979;86;20657;-80
2021/03/01 11:10:13;;;;;;;;;;;;;;;4.43;77.49;100034.36;1671972;86;20169;-80
2021/03/01 11:12:40;;;;;;;;;;;;;;;4.46;77.67;100040.95;1672063;86;20521;-79
2021/03/01 11:15:11;;;;;;;;;;;;;;;4.46;76.97;100043.61;1671907;86;20160;-77
2021/03/01 11:17:42;;;;;;;;;;;;;;;4.45;76.71;100045.88;1671980;86;22192;-81
2021/03/01 11:20:12;;;;;;;;;;;;;;;4.45;76.91;100049.40;1671988;86;20140;-79
2021/03/01 11:22:40;;;;;;;;;;;;;;;4.43;77.08;100045.00;1672047;86;20140;-78
2021/03/01 11:25:10;;;;;;;;;;;;;;;4.41;77.34;100046.81;1672052;86;20450;-78
2021/03/01 11:27:42;;;;;;;;;;;;;;;4.39;77.40;100057.95;1667500;86;20160;-79
2021/03/01 11:30:18;;;;;;;;;;;;;;;4.38;77.54;100065.03;1646179;86;21226;-80
2021/03/01 11:32:46;;;;;;;;;;;;;;;4.35;77.23;100058.43;1671918;86;20153;-79
2021/03/01 11:35:15;;;;;;;;;;;;;;;4.34;77.15;100074.86;1671991;86;20136;-78
2021/03/01 11:37:47;;;;;;;;;;;;;;;4.31;77.19;100068.72;1672057;86;20542;-78
2021/03/01 11:40:20;;;;;;;;;;;;;;;4.30;77.22;100070.52;1677495;85;20191;-79
2021/03/01 11:42:47;;;;;;;;;;;;;;;4.24;77.01;100065.30;1675575;85;21279;-80
2021/03/01 11:45:15;;;;;;;;;;;;;;;4.21;76.76;100067.10;1680118;85;20140;-78
2021/03/01 11:47:43;;;;;;;;;;;;;;;4.20;77.11;100069.36;1680181;85;20136;-79
2021/03/01 11:50:10;;;;;;;;;;;;;;;4.14;77.00;100066.34;1680128;85;20172;-78
2021/03/01 11:52:38;;;;;;;;;;;;;;;4.09;76.98;100067.73;1680183;85;20473;-80
2021/03/01 11:55:07;;;;;;;;;;;;;;;4.09;77.25;100072.19;1680164;85;22244;-77
2021/03/01 11:57:34;;;;;;;;;;;;;;;4.05;77.32;100074.45;1680134;85;20292;-78
2021/03/01 12:00:05;;;;;;;;;;;;;;;4.02;77.53;100078.48;1680172;85;20437;-79
2021/03/01 12:02:36;;;;;;;;;;;;;;;4.00;77.78;100076.31;1680111;85;20164;-77
2021/03/01 12:05:12;;;;;;;;;;;;;;;3.96;78.01;100075.50;1680235;85;20119;-79
2021/03/01 12:07:41;;;;;;;;;;;;;;;3.92;78.38;100082.62;1680215;85;21382;-80
2021/03/01 12:10:11;;;;;;;;;;;;;;;3.90;78.47;100078.25;1675399;85;20164;-80
2021/03/01 12:12:38;;;;;;;;;;;;;;;3.87;78.69;100083.61;1680138;85;20433;-78
2021/03/01 12:15:07;;;;;;;;;;;;;;;3.87;78.86;100078.30;1680216;85;20508;-78
2021/03/01 12:17:38;;;;;;;;;;;;;;;3.88;79.04;100082.69;1679935;85;20144;-79
2021/03/01 12:20:08;;;;;;;;;;;;;;;3.86;79.13;100082.70;1680120;85;21385;-80
2021/03/01 12:22:38;;;;;;;;;;;;;;;3.86;79.22;100082.70;1680068;85;20151;-78
2021/03/01 12:25:06;;;;;;;;;;;;;;;3.82;79.21;100082.81;1680136;85;20140;-79
2021/03/01 12:27:34;;;;;;;;;;;;;;;3.80;79.25;100078.38;1680066;85;20144;-79
2021/03/01 12:30:06;;;;;;;;;;;;;;;3.80;79.33;100079.71;1680234;85;20157;-79
2021/03/01 12:32:35;;;;;;;;;;;;;;;3.80;79.46;100085.48;1679148;85;21071;-77
2021/03/01 12:35:05;;;;;;;;;;;;;;;3.76;79.38;100077.12;1680164;85;21276;-78
2021/03/01 12:37:34;;;;;;;;;;;;;;;3.75;79.54;100080.23;1680200;85;20152;-79
2021/03/01 12:40:01;;;;;;;;;;;;;;;3.75;79.92;100085.98;1674394;85;20518;-80
2021/03/01 12:42:28;;;;;;;;;;;;;;;3.73;80.24;100085.13;1667192;86;20144;-79
2021/03/01 12:44:58;;;;;;;;;;;;;;;3.72;80.19;100084.70;1667036;86;22293;-79
2021/03/01 12:47:25;;;;;;;;;;;;;;;3.69;80.06;100092.28;1667123;86;20165;-78
2021/03/01 12:49:54;;;;;;;;;;;;;;;3.68;79.98;100087.86;1668438;85;20161;-79
2021/03/01 12:52:22;;;;;;;;;;;;;;;3.65;80.28;100083.05;1667037;86;20445;-79
2021/03/01 12:54:49;;;;;;;;;;;;;;;3.64;80.15;100083.94;1667045;86;20125;-79
2021/03/01 12:57:17;;;;;;;;;;;;;;;3.65;80.30;100084.37;1666981;86;21806;-79
2021/03/01 12:59:47;;;;;;;;;;;;;;;3.65;80.53;100080.39;1666981;86;21752;-80
2021/03/01 13:02:18;;;;;;;;;;;;;;;3.69;80.53;100086.06;1666966;86;20136;-79
2021/03/01 13:04:45;;;;;;;;;;;;;;;3.69;80.38;100082.08;1666960;86;20164;-80
2021/03/01 13:07:13;;;;;;;;;;;;;;;3.68;80.30;100079.02;1667045;86;20137;-79
2021/03/01 13:09:41;;;;;;;;;;;;;;;3.67;80.26;100086.55;1667042;85;22310;-79
2021/03/01 13:12:10;;;;;;;;;;;;;;;3.66;80.35;100089.66;1666916;86;20169;-78